Wotton-under-Edge, United Kingdom
Current Conditions -  °F | °C
As of 1:20 PM on Wednesday 22 Oct 2014 (Local Time) from EGBJ Reporting Station
Scattered Clouds Scattered Clouds  
Wind Chill: 55°   Ceiling: Unl
Heat Index: 55°   Visibility: 6mi
Dew Point: 46°   Wind: 6mph
Humidity: 72%   Direction: 230°SW
Pressure: 30.27"   Gusts: NA
Location:  51.63°N, 2.35°W
Report Text: EGBJ 221220Z 23005KT 9999 SCT035 13/08 Q1025
Loading
Personal Weather Stations






























Interactive Weather Map
Tropical Storm Tracking
New forecast layout! Learn more

10-Day Weather Forecast

Advertisements
Track Severe Weather on mobile